sensor_id;sensor_type;location;lat;lon;timestamp;P1;durP1;ratioP1;P2;durP2;ratioP2
32333;SDS011;18810;53.040;8.850;2023-05-07T00:00:40;31.63;;;21.35;;
32333;SDS011;18810;53.040;8.850;2023-05-07T00:03:05;29.30;;;20.98;;
32333;SDS011;18810;53.040;8.850;2023-05-07T00:05:31;31.40;;;22.08;;
32333;SDS011;18810;53.040;8.850;2023-05-07T00:07:57;28.95;;;20.55;;
32333;SDS011;18810;53.040;8.850;2023-05-07T00:10:23;28.02;;;19.92;;
32333;SDS011;18810;53.040;8.850;2023-05-07T00:12:48;31.00;;;21.00;;
32333;SDS011;18810;53.040;8.850;2023-05-07T00:15:14;28.60;;;21.00;;
32333;SDS011;18810;53.040;8.850;2023-05-07T00:17:40;28.15;;;19.55;;
32333;SDS011;18810;53.040;8.850;2023-05-07T00:20:06;28.55;;;21.25;;
32333;SDS011;18810;53.040;8.850;2023-05-07T00:22:32;28.33;;;20.35;;
32333;SDS011;18810;53.040;8.850;2023-05-07T00:24:58;28.60;;;20.80;;
32333;SDS011;18810;53.040;8.850;2023-05-07T00:27:24;36.35;;;21.73;;
32333;SDS011;18810;53.040;8.850;2023-05-07T00:29:50;29.40;;;21.30;;
32333;SDS011;18810;53.040;8.850;2023-05-07T00:32:16;30.80;;;20.83;;
32333;SDS011;18810;53.040;8.850;2023-05-07T00:34:42;29.08;;;20.40;;
32333;SDS011;18810;53.040;8.850;2023-05-07T00:37:08;31.27;;;20.55;;
32333;SDS011;18810;53.040;8.850;2023-05-07T00:39:34;32.45;;;22.02;;
32333;SDS011;18810;53.040;8.850;2023-05-07T00:42:00;28.52;;;21.00;;
32333;SDS011;18810;53.040;8.850;2023-05-07T00:44:27;31.98;;;22.55;;
32333;SDS011;18810;53.040;8.850;2023-05-07T00:46:53;29.13;;;21.38;;
32333;SDS011;18810;53.040;8.850;2023-05-07T00:49:19;31.40;;;22.27;;
32333;SDS011;18810;53.040;8.850;2023-05-07T00:51:46;31.23;;;22.33;;
32333;SDS011;18810;53.040;8.850;2023-05-07T00:54:12;29.40;;;22.15;;
32333;SDS011;18810;53.040;8.850;2023-05-07T00:56:38;33.42;;;22.55;;
32333;SDS011;18810;53.040;8.850;2023-05-07T00:59:05;31.85;;;21.98;;
32333;SDS011;18810;53.040;8.850;2023-05-07T01:01:31;30.63;;;21.48;;
32333;SDS011;18810;53.040;8.850;2023-05-07T01:03:57;30.38;;;21.80;;
32333;SDS011;18810;53.040;8.850;2023-05-07T01:06:23;30.92;;;22.25;;
32333;SDS011;18810;53.040;8.850;2023-05-07T01:08:51;30.15;;;22.10;;
32333;SDS011;18810;53.040;8.850;2023-05-07T01:11:18;31.88;;;20.98;;
32333;SDS011;18810;53.040;8.850;2023-05-07T01:13:45;29.65;;;20.13;;
32333;SDS011;18810;53.040;8.850;2023-05-07T01:16:12;31.38;;;21.67;;
32333;SDS011;18810;53.040;8.850;2023-05-07T01:18:37;29.20;;;19.60;;
32333;SDS011;18810;53.040;8.850;2023-05-07T01:21:03;29.17;;;20.17;;
32333;SDS011;18810;53.040;8.850;2023-05-07T01:23:30;30.67;;;21.55;;
32333;SDS011;18810;53.040;8.850;2023-05-07T01:25:56;29.05;;;20.75;;
32333;SDS011;18810;53.040;8.850;2023-05-07T01:28:23;31.77;;;22.58;;
32333;SDS011;18810;53.040;8.850;2023-05-07T01:30:53;30.80;;;21.67;;
32333;SDS011;18810;53.040;8.850;2023-05-07T01:33:24;33.03;;;21.48;;
32333;SDS011;18810;53.040;8.850;2023-05-07T01:35:52;32.35;;;21.48;;
32333;SDS011;18810;53.040;8.850;2023-05-07T01:38:18;31.17;;;20.83;;
32333;SDS011;18810;53.040;8.850;2023-05-07T01:40:46;31.90;;;21.08;;
32333;SDS011;18810;53.040;8.850;2023-05-07T01:43:12;29.58;;;20.52;;
32333;SDS011;18810;53.040;8.850;2023-05-07T01:45:38;31.27;;;21.00;;
32333;SDS011;18810;53.040;8.850;2023-05-07T01:48:05;30.83;;;21.77;;
32333;SDS011;18810;53.040;8.850;2023-05-07T01:50:32;32.15;;;20.92;;
32333;SDS011;18810;53.040;8.850;2023-05-07T01:52:58;27.90;;;20.60;;
32333;SDS011;18810;53.040;8.850;2023-05-07T01:55:24;30.65;;;21.35;;
32333;SDS011;18810;53.040;8.850;2023-05-07T01:57:50;31.25;;;20.48;;
32333;SDS011;18810;53.040;8.850;2023-05-07T02:00:16;31.35;;;20.67;;
32333;SDS011;18810;53.040;8.850;2023-05-07T02:02:42;31.25;;;19.85;;
32333;SDS011;18810;53.040;8.850;2023-05-07T02:05:08;28.95;;;20.73;;
32333;SDS011;18810;53.040;8.850;2023-05-07T02:07:34;30.85;;;21.00;;
32333;SDS011;18810;53.040;8.850;2023-05-07T02:10:00;32.03;;;21.73;;
32333;SDS011;18810;53.040;8.850;2023-05-07T02:12:25;29.27;;;19.83;;
32333;SDS011;18810;53.040;8.850;2023-05-07T02:14:51;30.52;;;20.88;;
32333;SDS011;18810;53.040;8.850;2023-05-07T02:17:17;28.23;;;19.08;;
32333;SDS011;18810;53.040;8.850;2023-05-07T02:19:42;29.33;;;20.08;;
32333;SDS011;18810;53.040;8.850;2023-05-07T02:22:09;31.58;;;19.92;;
32333;SDS011;18810;53.040;8.850;2023-05-07T02:24:34;31.13;;;19.80;;
32333;SDS011;18810;53.040;8.850;2023-05-07T02:27:00;29.38;;;19.20;;
32333;SDS011;18810;53.040;8.850;2023-05-07T02:29:28;33.63;;;19.67;;
32333;SDS011;18810;53.040;8.850;2023-05-07T02:31:54;30.23;;;18.58;;
32333;SDS011;18810;53.040;8.850;2023-05-07T02:34:20;30.85;;;19.13;;
32333;SDS011;18810;53.040;8.850;2023-05-07T02:36:46;30.20;;;20.40;;
32333;SDS011;18810;53.040;8.850;2023-05-07T02:39:12;34.80;;;20.42;;
32333;SDS011;18810;53.040;8.850;2023-05-07T02:41:38;29.35;;;20.10;;
32333;SDS011;18810;53.040;8.850;2023-05-07T02:44:04;31.23;;;19.45;;
32333;SDS011;18810;53.040;8.850;2023-05-07T02:46:30;31.23;;;20.08;;
32333;SDS011;18810;53.040;8.850;2023-05-07T02:48:56;30.30;;;19.83;;
32333;SDS011;18810;53.040;8.850;2023-05-07T02:51:22;30.67;;;19.40;;
32333;SDS011;18810;53.040;8.850;2023-05-07T02:53:48;28.67;;;19.20;;
32333;SDS011;18810;53.040;8.850;2023-05-07T02:56:14;31.45;;;19.30;;
32333;SDS011;18810;53.040;8.850;2023-05-07T02:58:40;31.88;;;20.63;;
32333;SDS011;18810;53.040;8.850;2023-05-07T03:01:07;29.00;;;19.67;;
32333;SDS011;18810;53.040;8.850;2023-05-07T03:03:33;32.70;;;19.50;;
32333;SDS011;18810;53.040;8.850;2023-05-07T03:05:59;27.60;;;18.27;;
32333;SDS011;18810;53.040;8.850;2023-05-07T03:08:24;28.30;;;18.58;;
32333;SDS011;18810;53.040;8.850;2023-05-07T03:10:50;32.50;;;19.40;;
32333;SDS011;18810;53.040;8.850;2023-05-07T03:13:16;34.08;;;19.58;;
32333;SDS011;18810;53.040;8.850;2023-05-07T03:15:42;29.38;;;18.55;;
32333;SDS011;18810;53.040;8.850;2023-05-07T03:18:08;30.85;;;19.75;;
32333;SDS011;18810;53.040;8.850;2023-05-07T03:20:33;29.48;;;18.33;;
32333;SDS011;18810;53.040;8.850;2023-05-07T03:22:59;31.90;;;19.73;;
32333;SDS011;18810;53.040;8.850;2023-05-07T03:25:25;30.42;;;19.83;;
32333;SDS011;18810;53.040;8.850;2023-05-07T03:27:51;29.80;;;19.50;;
32333;SDS011;18810;53.040;8.850;2023-05-07T03:30:16;28.65;;;19.00;;
32333;SDS011;18810;53.040;8.850;2023-05-07T03:32:42;32.85;;;19.40;;
32333;SDS011;18810;53.040;8.850;2023-05-07T03:35:08;31.65;;;20.23;;
32333;SDS011;18810;53.040;8.850;2023-05-07T03:37:33;31.15;;;19.83;;
32333;SDS011;18810;53.040;8.850;2023-05-07T03:39:59;29.80;;;19.20;;
32333;SDS011;18810;53.040;8.850;2023-05-07T03:42:25;31.13;;;20.08;;
32333;SDS011;18810;53.040;8.850;2023-05-07T03:44:50;31.67;;;19.67;;
32333;SDS011;18810;53.040;8.850;2023-05-07T03:47:16;28.63;;;18.55;;
32333;SDS011;18810;53.040;8.850;2023-05-07T03:49:42;29.95;;;19.30;;
32333;SDS011;18810;53.040;8.850;2023-05-07T03:52:08;27.42;;;18.23;;
32333;SDS011;18810;53.040;8.850;2023-05-07T03:54:33;28.63;;;19.35;;
32333;SDS011;18810;53.040;8.850;2023-05-07T03:56:59;33.33;;;19.23;;
32333;SDS011;18810;53.040;8.850;2023-05-07T03:59:25;28.65;;;18.63;;
32333;SDS011;18810;53.040;8.850;2023-05-07T04:01:50;30.17;;;18.08;;
32333;SDS011;18810;53.040;8.850;2023-05-07T04:04:16;29.50;;;18.75;;
32333;SDS011;18810;53.040;8.850;2023-05-07T04:06:42;30.85;;;18.77;;
32333;SDS011;18810;53.040;8.850;2023-05-07T04:09:07;30.75;;;19.35;;
32333;SDS011;18810;53.040;8.850;2023-05-07T04:11:33;29.02;;;18.65;;
32333;SDS011;18810;53.040;8.850;2023-05-07T04:14:00;30.60;;;18.65;;
32333;SDS011;18810;53.040;8.850;2023-05-07T04:16:26;28.73;;;18.30;;
32333;SDS011;18810;53.040;8.850;2023-05-07T04:18:52;27.88;;;18.17;;
32333;SDS011;18810;53.040;8.850;2023-05-07T04:21:18;30.50;;;18.45;;
32333;SDS011;18810;53.040;8.850;2023-05-07T04:23:45;29.63;;;18.73;;
32333;SDS011;18810;53.040;8.850;2023-05-07T04:26:15;28.42;;;17.60;;
32333;SDS011;18810;53.040;8.850;2023-05-07T04:28:41;26.45;;;17.30;;
32333;SDS011;18810;53.040;8.850;2023-05-07T04:31:07;29.48;;;18.17;;
32333;SDS011;18810;53.040;8.850;2023-05-07T04:33:33;25.20;;;17.50;;
32333;SDS011;18810;53.040;8.850;2023-05-07T04:36:02;29.05;;;18.65;;
32333;SDS011;18810;53.040;8.850;2023-05-07T04:38:30;28.75;;;17.63;;
32333;SDS011;18810;53.040;8.850;2023-05-07T04:40:56;31.60;;;18.48;;
32333;SDS011;18810;53.040;8.850;2023-05-07T04:43:27;28.35;;;17.45;;
32333;SDS011;18810;53.040;8.850;2023-05-07T04:45:52;27.95;;;18.73;;
32333;SDS011;18810;53.040;8.850;2023-05-07T04:48:18;27.50;;;17.42;;
32333;SDS011;18810;53.040;8.850;2023-05-07T04:50:51;25.27;;;16.10;;
32333;SDS011;18810;53.040;8.850;2023-05-07T04:53:17;24.80;;;16.52;;
32333;SDS011;18810;53.040;8.850;2023-05-07T04:55:43;27.23;;;17.30;;
32333;SDS011;18810;53.040;8.850;2023-05-07T04:58:10;26.48;;;17.20;;
32333;SDS011;18810;53.040;8.850;2023-05-07T05:00:36;27.75;;;17.17;;
32333;SDS011;18810;53.040;8.850;2023-05-07T05:03:02;28.73;;;18.02;;
32333;SDS011;18810;53.040;8.850;2023-05-07T05:05:27;25.60;;;16.73;;
32333;SDS011;18810;53.040;8.850;2023-05-07T05:07:53;23.65;;;16.70;;
32333;SDS011;18810;53.040;8.850;2023-05-07T05:10:18;25.92;;;17.30;;
32333;SDS011;18810;53.040;8.850;2023-05-07T05:12:44;26.45;;;16.75;;
32333;SDS011;18810;53.040;8.850;2023-05-07T05:15:13;25.08;;;16.33;;
32333;SDS011;18810;53.040;8.850;2023-05-07T05:17:39;23.85;;;15.13;;
32333;SDS011;18810;53.040;8.850;2023-05-07T05:20:05;23.52;;;15.23;;
32333;SDS011;18810;53.040;8.850;2023-05-07T05:22:31;23.23;;;15.75;;
32333;SDS011;18810;53.040;8.850;2023-05-07T05:24:57;22.55;;;15.68;;
32333;SDS011;18810;53.040;8.850;2023-05-07T05:27:23;21.77;;;14.98;;
32333;SDS011;18810;53.040;8.850;2023-05-07T05:29:49;23.38;;;15.02;;
32333;SDS011;18810;53.040;8.850;2023-05-07T05:32:14;21.52;;;14.35;;
32333;SDS011;18810;53.040;8.850;2023-05-07T05:34:40;22.50;;;14.50;;
32333;SDS011;18810;53.040;8.850;2023-05-07T05:37:06;23.25;;;15.00;;
32333;SDS011;18810;53.040;8.850;2023-05-07T05:39:31;22.55;;;14.18;;
32333;SDS011;18810;53.040;8.850;2023-05-07T05:41:57;22.85;;;14.48;;
32333;SDS011;18810;53.040;8.850;2023-05-07T05:44:23;20.20;;;13.60;;
32333;SDS011;18810;53.040;8.850;2023-05-07T05:46:48;19.30;;;13.43;;
32333;SDS011;18810;53.040;8.850;2023-05-07T05:49:15;18.38;;;14.38;;
32333;SDS011;18810;53.040;8.850;2023-05-07T05:51:40;19.13;;;13.48;;
32333;SDS011;18810;53.040;8.850;2023-05-07T05:54:06;19.33;;;13.25;;
32333;SDS011;18810;53.040;8.850;2023-05-07T05:56:32;18.50;;;12.80;;
32333;SDS011;18810;53.040;8.850;2023-05-07T05:58:58;21.40;;;14.45;;
32333;SDS011;18810;53.040;8.850;2023-05-07T06:01:24;19.75;;;13.25;;
32333;SDS011;18810;53.040;8.850;2023-05-07T06:03:50;16.73;;;13.30;;
32333;SDS011;18810;53.040;8.850;2023-05-07T06:06:15;19.65;;;12.93;;
32333;SDS011;18810;53.040;8.850;2023-05-07T06:08:41;16.00;;;12.43;;
32333;SDS011;18810;53.040;8.850;2023-05-07T06:11:07;17.20;;;12.48;;
32333;SDS011;18810;53.040;8.850;2023-05-07T06:13:33;16.52;;;11.88;;
32333;SDS011;18810;53.040;8.850;2023-05-07T06:15:58;17.10;;;11.80;;
32333;SDS011;18810;53.040;8.850;2023-05-07T06:18:24;15.75;;;11.95;;
32333;SDS011;18810;53.040;8.850;2023-05-07T06:20:50;15.00;;;12.35;;
32333;SDS011;18810;53.040;8.850;2023-05-07T06:23:16;17.63;;;13.60;;
32333;SDS011;18810;53.040;8.850;2023-05-07T06:25:42;15.20;;;12.23;;
32333;SDS011;18810;53.040;8.850;2023-05-07T06:28:11;18.17;;;13.80;;
32333;SDS011;18810;53.040;8.850;2023-05-07T06:30:36;16.70;;;12.30;;
32333;SDS011;18810;53.040;8.850;2023-05-07T06:33:02;16.63;;;12.15;;
32333;SDS011;18810;53.040;8.850;2023-05-07T06:35:27;15.82;;;12.00;;
32333;SDS011;18810;53.040;8.850;2023-05-07T06:37:53;15.35;;;12.27;;
32333;SDS011;18810;53.040;8.850;2023-05-07T06:40:19;14.88;;;11.77;;
32333;SDS011;18810;53.040;8.850;2023-05-07T06:42:44;17.70;;;12.95;;
32333;SDS011;18810;53.040;8.850;2023-05-07T06:45:10;16.08;;;12.48;;
32333;SDS011;18810;53.040;8.850;2023-05-07T06:47:36;15.43;;;12.23;;
32333;SDS011;18810;53.040;8.850;2023-05-07T06:50:01;18.02;;;12.48;;
32333;SDS011;18810;53.040;8.850;2023-05-07T06:52:27;16.08;;;11.35;;
32333;SDS011;18810;53.040;8.850;2023-05-07T06:54:53;15.55;;;12.07;;
32333;SDS011;18810;53.040;8.850;2023-05-07T06:57:18;14.88;;;11.60;;
32333;SDS011;18810;53.040;8.850;2023-05-07T06:59:44;13.98;;;11.07;;
32333;SDS011;18810;53.040;8.850;2023-05-07T07:02:09;18.98;;;14.05;;
32333;SDS011;18810;53.040;8.850;2023-05-07T07:04:35;13.77;;;12.00;;
32333;SDS011;18810;53.040;8.850;2023-05-07T07:07:03;13.10;;;10.95;;
32333;SDS011;18810;53.040;8.850;2023-05-07T07:09:29;16.17;;;12.18;;
32333;SDS011;18810;53.040;8.850;2023-05-07T07:11:55;13.93;;;11.60;;
32333;SDS011;18810;53.040;8.850;2023-05-07T07:14:21;15.95;;;11.32;;
32333;SDS011;18810;53.040;8.850;2023-05-07T07:16:47;14.77;;;11.00;;
32333;SDS011;18810;53.040;8.850;2023-05-07T07:19:13;12.45;;;10.77;;
32333;SDS011;18810;53.040;8.850;2023-05-07T07:21:40;15.57;;;11.63;;
32333;SDS011;18810;53.040;8.850;2023-05-07T07:24:06;14.27;;;12.13;;
32333;SDS011;18810;53.040;8.850;2023-05-07T07:26:32;15.25;;;12.32;;
32333;SDS011;18810;53.040;8.850;2023-05-07T07:28:57;16.15;;;12.30;;
32333;SDS011;18810;53.040;8.850;2023-05-07T07:31:23;14.57;;;12.35;;
32333;SDS011;18810;53.040;8.850;2023-05-07T07:33:49;15.38;;;12.45;;
32333;SDS011;18810;53.040;8.850;2023-05-07T07:36:15;14.35;;;12.80;;
32333;SDS011;18810;53.040;8.850;2023-05-07T07:38:41;16.02;;;12.30;;
32333;SDS011;18810;53.040;8.850;2023-05-07T07:41:10;17.25;;;12.77;;
32333;SDS011;18810;53.040;8.850;2023-05-07T07:43:35;14.57;;;12.55;;
32333;SDS011;18810;53.040;8.850;2023-05-07T07:46:01;19.85;;;13.57;;
32333;SDS011;18810;53.040;8.850;2023-05-07T07:48:26;16.75;;;13.10;;
32333;SDS011;18810;53.040;8.850;2023-05-07T07:50:52;16.33;;;12.73;;
32333;SDS011;18810;53.040;8.850;2023-05-07T07:53:18;15.45;;;12.60;;
32333;SDS011;18810;53.040;8.850;2023-05-07T07:55:44;14.35;;;12.20;;
32333;SDS011;18810;53.040;8.850;2023-05-07T07:58:09;15.18;;;12.23;;
32333;SDS011;18810;53.040;8.850;2023-05-07T08:00:35;14.85;;;11.88;;
32333;SDS011;18810;53.040;8.850;2023-05-07T08:03:01;13.05;;;11.30;;
32333;SDS011;18810;53.040;8.850;2023-05-07T08:05:28;15.40;;;11.73;;
32333;SDS011;18810;53.040;8.850;2023-05-07T08:07:53;12.77;;;11.48;;
32333;SDS011;18810;53.040;8.850;2023-05-07T08:10:19;14.30;;;11.70;;
32333;SDS011;18810;53.040;8.850;2023-05-07T08:12:48;14.98;;;10.65;;
32333;SDS011;18810;53.040;8.850;2023-05-07T08:15:14;11.77;;;9.88;;
32333;SDS011;18810;53.040;8.850;2023-05-07T08:17:40;13.30;;;11.25;;
32333;SDS011;18810;53.040;8.850;2023-05-07T08:20:06;13.68;;;10.60;;
32333;SDS011;18810;53.040;8.850;2023-05-07T08:22:33;12.65;;;10.57;;
32333;SDS011;18810;53.040;8.850;2023-05-07T08:24:59;13.77;;;10.70;;
32333;SDS011;18810;53.040;8.850;2023-05-07T08:27:26;13.40;;;10.20;;
32333;SDS011;18810;53.040;8.850;2023-05-07T08:29:51;12.32;;;9.77;;
32333;SDS011;18810;53.040;8.850;2023-05-07T08:32:17;11.30;;;9.45;;
32333;SDS011;18810;53.040;8.850;2023-05-07T08:34:42;12.25;;;10.45;;
32333;SDS011;18810;53.040;8.850;2023-05-07T08:37:08;12.57;;;10.23;;
32333;SDS011;18810;53.040;8.850;2023-05-07T08:39:34;11.63;;;9.80;;
32333;SDS011;18810;53.040;8.850;2023-05-07T08:42:00;12.15;;;9.70;;
32333;SDS011;18810;53.040;8.850;2023-05-07T08:44:27;11.75;;;10.13;;
32333;SDS011;18810;53.040;8.850;2023-05-07T08:46:57;10.43;;;9.30;;
32333;SDS011;18810;53.040;8.850;2023-05-07T08:49:25;12.23;;;9.65;;
32333;SDS011;18810;53.040;8.850;2023-05-07T08:51:52;12.18;;;10.02;;
32333;SDS011;18810;53.040;8.850;2023-05-07T08:54:18;13.77;;;10.30;;
32333;SDS011;18810;53.040;8.850;2023-05-07T08:56:45;13.02;;;10.52;;
32333;SDS011;18810;53.040;8.850;2023-05-07T08:59:11;12.88;;;10.98;;
32333;SDS011;18810;53.040;8.850;2023-05-07T09:01:36;11.45;;;9.68;;
32333;SDS011;18810;53.040;8.850;2023-05-07T09:04:03;12.30;;;10.98;;
32333;SDS011;18810;53.040;8.850;2023-05-07T09:06:29;12.93;;;11.15;;
32333;SDS011;18810;53.040;8.850;2023-05-07T09:08:55;11.85;;;10.55;;
32333;SDS011;18810;53.040;8.850;2023-05-07T09:11:21;13.23;;;11.02;;
32333;SDS011;18810;53.040;8.850;2023-05-07T09:13:48;12.80;;;11.07;;
32333;SDS011;18810;53.040;8.850;2023-05-07T09:16:19;13.32;;;10.82;;
32333;SDS011;18810;53.040;8.850;2023-05-07T09:18:45;13.10;;;11.40;;
32333;SDS011;18810;53.040;8.850;2023-05-07T09:21:15;13.38;;;11.38;;
32333;SDS011;18810;53.040;8.850;2023-05-07T09:23:42;12.88;;;10.57;;
32333;SDS011;18810;53.040;8.850;2023-05-07T09:26:08;13.70;;;11.32;;
32333;SDS011;18810;53.040;8.850;2023-05-07T09:28:40;11.63;;;10.43;;
32333;SDS011;18810;53.040;8.850;2023-05-07T09:31:07;15.13;;;12.27;;
32333;SDS011;18810;53.040;8.850;2023-05-07T09:33:33;15.32;;;12.00;;
32333;SDS011;18810;53.040;8.850;2023-05-07T09:36:02;14.93;;;12.32;;
32333;SDS011;18810;53.040;8.850;2023-05-07T09:38:32;14.25;;;12.10;;
32333;SDS011;18810;53.040;8.850;2023-05-07T09:41:02;13.50;;;12.02;;
32333;SDS011;18810;53.040;8.850;2023-05-07T09:43:33;14.02;;;12.00;;
32333;SDS011;18810;53.040;8.850;2023-05-07T09:46:21;14.40;;;12.35;;
32333;SDS011;18810;53.040;8.850;2023-05-07T09:48:50;14.47;;;11.67;;
32333;SDS011;18810;53.040;8.850;2023-05-07T09:51:22;14.23;;;11.95;;
32333;SDS011;18810;53.040;8.850;2023-05-07T09:53:53;13.93;;;12.13;;
32333;SDS011;18810;53.040;8.850;2023-05-07T09:56:21;16.10;;;12.85;;
32333;SDS011;18810;53.040;8.850;2023-05-07T09:58:48;14.27;;;12.18;;
32333;SDS011;18810;53.040;8.850;2023-05-07T10:01:14;15.57;;;12.73;;
32333;SDS011;18810;53.040;8.850;2023-05-07T10:03:44;15.52;;;13.18;;
32333;SDS011;18810;53.040;8.850;2023-05-07T10:06:11;16.55;;;12.45;;
32333;SDS011;18810;53.040;8.850;2023-05-07T10:08:38;15.18;;;12.05;;
32333;SDS011;18810;53.040;8.850;2023-05-07T10:11:04;14.35;;;11.85;;
32333;SDS011;18810;53.040;8.850;2023-05-07T10:13:33;16.85;;;12.65;;
32333;SDS011;18810;53.040;8.850;2023-05-07T10:16:03;16.60;;;12.88;;
32333;SDS011;18810;53.040;8.850;2023-05-07T10:18:30;14.73;;;12.52;;
32333;SDS011;18810;53.040;8.850;2023-05-07T10:21:02;16.20;;;11.82;;
32333;SDS011;18810;53.040;8.850;2023-05-07T10:23:33;15.65;;;13.18;;
32333;SDS011;18810;53.040;8.850;2023-05-07T10:25:59;15.63;;;12.88;;
32333;SDS011;18810;53.040;8.850;2023-05-07T10:28:32;15.45;;;12.95;;
32333;SDS011;18810;53.040;8.850;2023-05-07T10:34:01;16.77;;;12.93;;
32333;SDS011;18810;53.040;8.850;2023-05-07T10:36:32;19.05;;;12.85;;
32333;SDS011;18810;53.040;8.850;2023-05-07T10:38:59;15.77;;;12.43;;
32333;SDS011;18810;53.040;8.850;2023-05-07T10:41:25;14.60;;;12.93;;
32333;SDS011;18810;53.040;8.850;2023-05-07T10:43:50;16.73;;;13.15;;
32333;SDS011;18810;53.040;8.850;2023-05-07T10:46:20;15.38;;;12.63;;
32333;SDS011;18810;53.040;8.850;2023-05-07T11:01:50;16.25;;;12.98;;
32333;SDS011;18810;53.040;8.850;2023-05-07T11:04:16;15.75;;;13.10;;
32333;SDS011;18810;53.040;8.850;2023-05-07T11:15:08;14.05;;;12.35;;
32333;SDS011;18810;53.040;8.850;2023-05-07T11:17:51;14.10;;;12.60;;
32333;SDS011;18810;53.040;8.850;2023-05-07T11:20:21;13.55;;;11.85;;
32333;SDS011;18810;53.040;8.850;2023-05-07T11:26:00;12.73;;;11.43;;
32333;SDS011;18810;53.040;8.850;2023-05-07T11:28:28;13.35;;;11.95;;
32333;SDS011;18810;53.040;8.850;2023-05-07T11:30:54;13.75;;;11.23;;
32333;SDS011;18810;53.040;8.850;2023-05-07T11:33:22;12.50;;;11.05;;
32333;SDS011;18810;53.040;8.850;2023-05-07T11:35:50;13.13;;;11.73;;
32333;SDS011;18810;53.040;8.850;2023-05-07T11:38:17;12.43;;;11.23;;
32333;SDS011;18810;53.040;8.850;2023-05-07T11:40:50;13.15;;;10.43;;
32333;SDS011;18810;53.040;8.850;2023-05-07T11:43:16;12.35;;;10.40;;
32333;SDS011;18810;53.040;8.850;2023-05-07T11:45:42;13.38;;;10.52;;
32333;SDS011;18810;53.040;8.850;2023-05-07T11:48:09;13.40;;;11.32;;
32333;SDS011;18810;53.040;8.850;2023-05-07T11:50:35;13.10;;;11.65;;
32333;SDS011;18810;53.040;8.850;2023-05-07T11:53:06;12.55;;;11.27;;
32333;SDS011;18810;53.040;8.850;2023-05-07T11:55:32;11.88;;;10.68;;
32333;SDS011;18810;53.040;8.850;2023-05-07T11:57:58;12.13;;;10.82;;
32333;SDS011;18810;53.040;8.850;2023-05-07T12:00:24;12.18;;;10.88;;
32333;SDS011;18810;53.040;8.850;2023-05-07T12:02:50;11.73;;;10.52;;
32333;SDS011;18810;53.040;8.850;2023-05-07T12:05:15;11.90;;;10.70;;
32333;SDS011;18810;53.040;8.850;2023-05-07T12:07:41;11.95;;;10.50;;
32333;SDS011;18810;53.040;8.850;2023-05-07T12:10:07;12.57;;;10.23;;
32333;SDS011;18810;53.040;8.850;2023-05-07T12:12:39;13.18;;;11.77;;
32333;SDS011;18810;53.040;8.850;2023-05-07T12:15:07;12.00;;;10.65;;
32333;SDS011;18810;53.040;8.850;2023-05-07T12:17:33;11.57;;;10.45;;
32333;SDS011;18810;53.040;8.850;2023-05-07T12:19:59;11.95;;;10.75;;
32333;SDS011;18810;53.040;8.850;2023-05-07T12:22:25;14.25;;;11.20;;
32333;SDS011;18810;53.040;8.850;2023-05-07T12:24:57;12.75;;;11.48;;
32333;SDS011;18810;53.040;8.850;2023-05-07T12:27:25;11.20;;;10.10;;
32333;SDS011;18810;53.040;8.850;2023-05-07T12:29:51;11.93;;;10.45;;
32333;SDS011;18810;53.040;8.850;2023-05-07T12:32:17;11.60;;;10.50;;
32333;SDS011;18810;53.040;8.850;2023-05-07T12:34:44;12.27;;;10.95;;
32333;SDS011;18810;53.040;8.850;2023-05-07T12:37:10;11.82;;;10.63;;
32333;SDS011;18810;53.040;8.850;2023-05-07T12:39:37;11.50;;;10.25;;
32333;SDS011;18810;53.040;8.850;2023-05-07T12:42:08;12.00;;;10.20;;
32333;SDS011;18810;53.040;8.850;2023-05-07T12:44:51;11.85;;;10.68;;
32333;SDS011;18810;53.040;8.850;2023-05-07T12:47:17;11.82;;;10.63;;
32333;SDS011;18810;53.040;8.850;2023-05-07T12:49:42;13.13;;;10.65;;
32333;SDS011;18810;53.040;8.850;2023-05-07T12:52:10;12.20;;;10.43;;
32333;SDS011;18810;53.040;8.850;2023-05-07T12:54:37;11.95;;;10.68;;
32333;SDS011;18810;53.040;8.850;2023-05-07T12:57:07;10.30;;;9.18;;
32333;SDS011;18810;53.040;8.850;2023-05-07T12:59:40;10.68;;;9.73;;
32333;SDS011;18810;53.040;8.850;2023-05-07T13:02:07;11.38;;;9.43;;
32333;SDS011;18810;53.040;8.850;2023-05-07T13:04:34;9.57;;;8.68;;
32333;SDS011;18810;53.040;8.850;2023-05-07T13:07:00;9.23;;;8.40;;
32333;SDS011;18810;53.040;8.850;2023-05-07T13:09:26;9.57;;;8.77;;
32333;SDS011;18810;53.040;8.850;2023-05-07T13:11:54;9.98;;;9.02;;
32333;SDS011;18810;53.040;8.850;2023-05-07T13:14:19;9.63;;;8.68;;
32333;SDS011;18810;53.040;8.850;2023-05-07T13:16:46;9.70;;;8.80;;
32333;SDS011;18810;53.040;8.850;2023-05-07T13:19:14;9.27;;;8.18;;
32333;SDS011;18810;53.040;8.850;2023-05-07T13:21:40;9.43;;;8.48;;
32333;SDS011;18810;53.040;8.850;2023-05-07T13:24:06;9.25;;;8.32;;
32333;SDS011;18810;53.040;8.850;2023-05-07T13:26:32;8.50;;;7.65;;
32333;SDS011;18810;53.040;8.850;2023-05-07T13:28:57;10.65;;;8.35;;
32333;SDS011;18810;53.040;8.850;2023-05-07T13:31:23;7.97;;;7.20;;
32333;SDS011;18810;53.040;8.850;2023-05-07T13:33:49;9.93;;;8.00;;
32333;SDS011;18810;53.040;8.850;2023-05-07T13:36:15;8.77;;;7.78;;
32333;SDS011;18810;53.040;8.850;2023-05-07T13:38:41;8.27;;;7.40;;
32333;SDS011;18810;53.040;8.850;2023-05-07T13:41:07;9.15;;;8.25;;
32333;SDS011;18810;53.040;8.850;2023-05-07T13:43:32;8.45;;;7.35;;
32333;SDS011;18810;53.040;8.850;2023-05-07T13:45:59;8.15;;;7.35;;
32333;SDS011;18810;53.040;8.850;2023-05-07T13:48:25;9.45;;;8.40;;
32333;SDS011;18810;53.040;8.850;2023-05-07T13:50:51;10.50;;;7.97;;
32333;SDS011;18810;53.040;8.850;2023-05-07T13:53:17;8.82;;;7.95;;
32333;SDS011;18810;53.040;8.850;2023-05-07T13:55:43;8.68;;;7.75;;
32333;SDS011;18810;53.040;8.850;2023-05-07T13:58:09;8.73;;;7.88;;
32333;SDS011;18810;53.040;8.850;2023-05-07T14:00:35;7.55;;;6.82;;
32333;SDS011;18810;53.040;8.850;2023-05-07T14:03:01;10.30;;;7.85;;
32333;SDS011;18810;53.040;8.850;2023-05-07T14:05:28;9.02;;;8.13;;
32333;SDS011;18810;53.040;8.850;2023-05-07T14:07:54;7.95;;;7.20;;
32333;SDS011;18810;53.040;8.850;2023-05-07T14:10:21;9.05;;;8.25;;
32333;SDS011;18810;53.040;8.850;2023-05-07T14:12:47;9.48;;;8.48;;
32333;SDS011;18810;53.040;8.850;2023-05-07T14:15:13;10.77;;;9.07;;
32333;SDS011;18810;53.040;8.850;2023-05-07T14:17:39;9.65;;;8.75;;
32333;SDS011;18810;53.040;8.850;2023-05-07T14:20:04;8.13;;;7.43;;
32333;SDS011;18810;53.040;8.850;2023-05-07T14:22:31;8.73;;;7.93;;
32333;SDS011;18810;53.040;8.850;2023-05-07T14:24:57;9.70;;;8.60;;
32333;SDS011;18810;53.040;8.850;2023-05-07T14:27:23;10.40;;;9.35;;
32333;SDS011;18810;53.040;8.850;2023-05-07T14:29:49;10.25;;;8.60;;
32333;SDS011;18810;53.040;8.850;2023-05-07T14:32:19;9.85;;;8.80;;
32333;SDS011;18810;53.040;8.850;2023-05-07T14:34:45;9.95;;;8.93;;
32333;SDS011;18810;53.040;8.850;2023-05-07T14:37:11;9.52;;;8.60;;
32333;SDS011;18810;53.040;8.850;2023-05-07T14:39:37;9.93;;;8.95;;
32333;SDS011;18810;53.040;8.850;2023-05-07T14:42:03;9.20;;;8.30;;
32333;SDS011;18810;53.040;8.850;2023-05-07T14:44:28;10.02;;;9.05;;
32333;SDS011;18810;53.040;8.850;2023-05-07T14:46:54;11.40;;;10.38;;
32333;SDS011;18810;53.040;8.850;2023-05-07T14:49:20;10.20;;;9.23;;